Time;durP1;ratioP1;P1;durP2;ratioP2;P2;SDS_P1;SDS_P2;PMS_P1;PMS_P2;Temp;Humidity;BMP_temperature;BMP_pressure;BME280_temperature;BME280_humidity;BME280_pressure;Samples;Min_cycle;Max_cycle;Signal;HPM_P1;HPM_P2
2022/11/12 00:02:08;;;;;;;;;;;6.60;99.90;;;;;;5157091;27;19911;-40
2022/11/12 00:04:34;;;;;;;;;;;6.70;99.90;;;;;;5157352;27;19919;-39
2022/11/12 00:06:59;;;;;;;;;;;6.70;99.90;;;;;;5156599;27;20353;-39
2022/11/12 00:09:25;;;;;;;;;;;6.80;99.90;;;;;;5157220;27;20280;-38
2022/11/12 00:11:50;;;;;;;;;;;6.80;99.90;;;;;;5155565;27;20389;-39
2022/11/12 00:14:16;;;;;;;;;;;6.80;99.90;;;;;;5155896;27;19912;-39
2022/11/12 00:16:41;;;;;;;;;;;6.80;99.90;;;;;;5156738;27;19915;-41
2022/11/12 00:19:06;;;;;;;;;;;6.80;99.90;;;;;;5157149;27;20002;-39
2022/11/12 00:21:32;;;;;;;;;;;6.80;99.90;;;;;;5156807;27;20349;-39
2022/11/12 00:23:57;;;;;;;;;;;6.80;99.90;;;;;;5157297;27;19907;-40
2022/11/12 00:26:23;;;;;;;;;;;6.70;99.90;;;;;;5157073;27;19998;-39
2022/11/12 00:28:48;;;;;;;;;;;6.60;99.90;;;;;;5156076;27;19918;-43
2022/11/12 00:31:14;;;;;;;;;;;6.60;99.90;;;;;;5156260;27;19911;-40
2022/11/12 00:33:40;;;;;;;;;;;6.50;99.90;;;;;;5157172;27;19976;-39
2022/11/12 00:36:07;;;;;;;;;;;6.50;99.90;;;;;;5156176;27;19915;-40
2022/11/12 00:38:32;;;;;;;;;;;6.50;99.90;;;;;;5156644;27;19907;-41
2022/11/12 00:40:58;;;;;;;;;;;6.50;99.90;;;;;;5155420;27;19918;-41
2022/11/12 00:43:23;;;;;;;;;;;6.40;99.90;;;;;;5156422;27;19962;-41
2022/11/12 00:45:49;;;;;;;;;;;6.50;99.90;;;;;;5156262;27;20329;-40
2022/11/12 00:48:14;;;;;;;;;;;6.40;99.90;;;;;;5155935;27;19917;-43
2022/11/12 00:50:40;;;;;;;;;;;6.40;99.90;;;;;;5156395;27;20234;-40
2022/11/12 00:53:05;;;;;;;;;;;6.40;99.90;;;;;;5156506;27;19959;-39
2022/11/12 00:55:31;;;;;;;;;;;6.30;99.90;;;;;;5155286;27;20357;-42
2022/11/12 00:57:57;;;;;;;;;;;6.40;99.90;;;;;;5156291;27;19915;-40
2022/11/12 01:00:22;;;;;;;;;;;6.40;99.90;;;;;;5156177;27;19926;-40
2022/11/12 01:02:48;;;;;;;;;;;6.50;99.90;;;;;;5155201;27;20370;-44
2022/11/12 01:05:13;;;;;;;;;;;6.40;99.90;;;;;;5156350;27;19963;-38
2022/11/12 01:07:39;;;;;;;;;;;6.40;99.90;;;;;;5155665;27;20404;-41
2022/11/12 01:10:04;;;;;;;;;;;6.40;99.90;;;;;;5155444;27;19918;-39
2022/11/12 01:12:30;;;;;;;;;;;6.40;99.90;;;;;;5156289;27;20541;-40
2022/11/12 01:14:56;;;;;;;;;;;6.30;99.90;;;;;;5155455;27;20246;-39
2022/11/12 01:17:21;;;;;;;;;;;6.30;99.90;;;;;;5155239;27;19911;-41
2022/11/12 01:19:46;;;;;;;;;;;6.30;99.90;;;;;;5155128;27;19958;-38
2022/11/12 01:22:12;;;;;;;;;;;6.30;99.90;;;;;;5156068;27;19915;-39
2022/11/12 01:24:37;;;;;;;;;;;6.30;99.90;;;;;;5154884;27;19921;-40
2022/11/12 01:27:03;;;;;;;;;;;6.20;99.90;;;;;;5156069;27;20016;-39
2022/11/12 01:29:28;;;;;;;;;;;6.20;99.90;;;;;;5155633;27;19918;-44
2022/11/12 01:31:54;;;;;;;;;;;6.20;99.90;;;;;;5154816;27;19997;-39
2022/11/12 01:34:19;;;;;;;;;;;6.20;99.90;;;;;;5155787;27;20315;-39
2022/11/12 01:36:45;;;;;;;;;;;6.20;99.90;;;;;;5155857;27;19907;-39
2022/11/12 01:39:10;;;;;;;;;;;6.10;99.90;;;;;;5154673;27;19907;-40
2022/11/12 01:41:37;;;;;;;;;;;6.20;99.90;;;;;;5155183;27;19915;-39
2022/11/12 01:44:08;;;;;;;;;;;6.20;99.90;;;;;;5155078;27;19926;-39
2022/11/12 01:46:36;;;;;;;;;;;6.20;99.90;;;;;;5154806;27;20006;-39
2022/11/12 01:49:03;;;;;;;;;;;6.30;99.90;;;;;;5154835;27;19914;-39
2022/11/12 01:51:33;;;;;;;;;;;6.30;99.90;;;;;;5154898;27;19947;-40
2022/11/12 01:54:00;;;;;;;;;;;6.30;99.90;;;;;;5154541;27;19907;-39
2022/11/12 01:56:28;;;;;;;;;;;6.20;99.90;;;;;;5155209;27;19911;-40
2022/11/12 01:58:57;;;;;;;;;;;6.20;99.90;;;;;;5154435;27;19914;-39
2022/11/12 02:01:23;;;;;;;;;;;6.20;99.90;;;;;;5138374;27;19926;-42
2022/11/12 02:03:48;;;;;;;;;;;6.20;99.90;;;;;;5155165;27;19907;-39
2022/11/12 02:06:15;;;;;;;;;;;6.30;99.90;;;;;;5153746;27;20034;-40
2022/11/12 02:08:40;;;;;;;;;;;6.30;99.90;;;;;;5155155;27;19911;-43
2022/11/12 02:11:11;;;;;;;;;;;6.40;99.90;;;;;;5154803;27;19915;-39
2022/11/12 02:16:20;;;;;;;;;;;6.30;99.90;;;;;;5154993;27;19917;-39
2022/11/12 02:18:45;;;;;;;;;;;6.30;99.90;;;;;;5154778;27;19907;-39
2022/11/12 02:21:11;;;;;;;;;;;6.20;99.90;;;;;;5153953;27;19926;-41
2022/11/12 02:23:37;;;;;;;;;;;6.20;99.90;;;;;;5154988;27;20261;-44
2022/11/12 02:26:03;;;;;;;;;;;6.10;99.90;;;;;;5154490;27;19910;-42
2022/11/12 02:28:29;;;;;;;;;;;6.10;99.90;;;;;;5154341;27;19918;-40
2022/11/12 02:30:55;;;;;;;;;;;6.10;99.90;;;;;;5154489;27;19911;-41
2022/11/12 02:33:20;;;;;;;;;;;6.10;99.90;;;;;;5154930;27;19918;-39
2022/11/12 02:35:46;;;;;;;;;;;6.10;99.90;;;;;;5153356;27;20398;-39
2022/11/12 02:38:11;;;;;;;;;;;6.20;99.90;;;;;;5154685;27;19911;-41
2022/11/12 02:40:37;;;;;;;;;;;6.20;99.90;;;;;;5152854;27;19931;-39
2022/11/12 02:43:02;;;;;;;;;;;6.20;99.90;;;;;;5154596;27;20392;-42
2022/11/12 02:45:29;;;;;;;;;;;6.20;99.90;;;;;;5153827;27;19945;-39
2022/11/12 02:47:54;;;;;;;;;;;6.20;99.90;;;;;;5152962;27;19911;-39
2022/11/12 02:50:20;;;;;;;;;;;6.20;99.90;;;;;;5153949;27;19918;-39
2022/11/12 02:52:45;;;;;;;;;;;6.20;99.90;;;;;;5154031;27;19918;-39
2022/11/12 02:55:11;;;;;;;;;;;6.10;99.90;;;;;;5152845;27;19917;-42
2022/11/12 02:57:37;;;;;;;;;;;6.10;99.90;;;;;;5154077;27;19918;-44
2022/11/12 03:00:04;;;;;;;;;;;6.10;99.90;;;;;;5154079;27;20021;-43
2022/11/12 03:02:29;;;;;;;;;;;6.20;99.90;;;;;;5153023;27;19911;-40
2022/11/12 03:04:55;;;;;;;;;;;6.20;99.90;;;;;;5154027;27;19918;-39
2022/11/12 03:07:20;;;;;;;;;;;6.00;99.90;;;;;;5154027;27;19911;-39
2022/11/12 03:09:46;;;;;;;;;;;6.00;99.90;;;;;;5153204;27;20396;-39
2022/11/12 03:12:11;;;;;;;;;;;5.90;99.90;;;;;;5154170;27;19916;-40
2022/11/12 03:14:37;;;;;;;;;;;5.90;99.90;;;;;;5153974;27;20422;-39
2022/11/12 03:17:03;;;;;;;;;;;5.90;99.90;;;;;;5153658;27;19907;-40
2022/11/12 03:19:28;;;;;;;;;;;6.00;99.90;;;;;;5153496;27;20315;-40
2022/11/12 03:21:53;;;;;;;;;;;6.00;99.90;;;;;;5153825;27;19994;-40
2022/11/12 03:24:19;;;;;;;;;;;6.00;99.90;;;;;;5153224;27;19911;-40
2022/11/12 03:26:44;;;;;;;;;;;6.00;99.90;;;;;;5154076;27;20365;-44
2022/11/12 03:29:10;;;;;;;;;;;6.00;99.90;;;;;;5153984;27;19954;-39
2022/11/12 03:31:35;;;;;;;;;;;5.90;99.90;;;;;;5156158;27;19918;-40
2022/11/12 03:34:01;;;;;;;;;;;5.80;99.90;;;;;;5158099;27;20377;-40
2022/11/12 03:36:26;;;;;;;;;;;5.70;99.90;;;;;;5158235;27;19951;-40
2022/11/12 03:38:52;;;;;;;;;;;5.70;99.90;;;;;;5156799;27;20349;-40
2022/11/12 03:41:17;;;;;;;;;;;5.60;99.90;;;;;;5157743;27;19922;-41
2022/11/12 03:43:42;;;;;;;;;;;5.40;99.90;;;;;;5157668;27;19923;-46
2022/11/12 03:46:08;;;;;;;;;;;5.40;99.90;;;;;;5157301;27;19915;-40
2022/11/12 03:48:33;;;;;;;;;;;5.40;99.90;;;;;;5157621;27;19911;-40
2022/11/12 03:50:59;;;;;;;;;;;5.40;99.90;;;;;;5156519;27;19911;-39
2022/11/12 03:53:25;;;;;;;;;;;5.40;99.90;;;;;;5157753;27;19922;-43
2022/11/12 03:55:50;;;;;;;;;;;5.20;99.90;;;;;;5157399;27;19915;-39
2022/11/12 03:58:15;;;;;;;;;;;5.10;99.90;;;;;;5157088;27;19952;-41
2022/11/12 04:00:41;;;;;;;;;;;5.00;99.90;;;;;;5157343;27;20330;-39
2022/11/12 04:03:06;;;;;;;;;;;5.00;99.90;;;;;;5157228;27;20014;-44
2022/11/12 04:08:36;;;;;;;;;;;4.90;99.90;;;;;;5157340;27;19964;-39
2022/11/12 04:11:08;;;;;;;;;;;4.90;99.90;;;;;;5156891;27;19911;-39
2022/11/12 04:13:37;;;;;;;;;;;4.90;99.90;;;;;;5156870;27;19986;-39
2022/11/12 04:21:55;;;;;;;;;;;5.00;99.90;;;;;;5156654;27;20292;-40
2022/11/12 04:27:09;;;;;;;;;;;5.00;99.90;;;;;;5156243;27;20419;-41
2022/11/12 04:30:19;;;;;;;;;;;5.00;99.90;;;;;;5156774;27;19911;-40
2022/11/12 04:32:21;;;;;;;;;;;4.90;99.90;;;;;;5125403;27;20377;-41
2022/11/12 04:34:46;;;;;;;;;;;4.90;99.90;;;;;;5142649;27;19911;-39
2022/11/12 04:37:12;;;;;;;;;;;4.80;99.90;;;;;;5157267;27;19914;-39
2022/11/12 04:39:37;;;;;;;;;;;4.80;99.90;;;;;;5156624;27;20478;-41
2022/11/12 04:45:00;;;;;;;;;;;4.70;99.90;;;;;;5156511;27;19972;-40
2022/11/12 04:47:29;;;;;;;;;;;4.70;99.90;;;;;;5155362;27;19915;-39
2022/11/12 04:49:56;;;;;;;;;;;4.60;99.90;;;;;;5156327;27;19963;-41
2022/11/12 04:52:21;;;;;;;;;;;4.60;99.90;;;;;;5156229;27;19911;-41
2022/11/12 04:54:47;;;;;;;;;;;4.60;99.90;;;;;;5155570;27;19919;-38
2022/11/12 04:57:12;;;;;;;;;;;4.50;99.90;;;;;;5155782;27;20412;-40
2022/11/12 04:59:37;;;;;;;;;;;4.50;99.90;;;;;;5155829;27;19963;-40
2022/11/12 05:02:03;;;;;;;;;;;4.30;99.90;;;;;;5155296;27;20034;-41
2022/11/12 05:04:28;;;;;;;;;;;4.30;99.90;;;;;;5156256;27;20242;-39
2022/11/12 05:06:54;;;;;;;;;;;4.20;99.90;;;;;;5156341;27;19907;-39
2022/11/12 05:09:21;;;;;;;;;;;4.10;99.90;;;;;;5155432;27;20281;-39
2022/11/12 05:11:47;;;;;;;;;;;4.10;99.90;;;;;;5155814;27;19929;-40
2022/11/12 05:14:12;;;;;;;;;;;4.10;99.90;;;;;;5156143;27;19907;-39
2022/11/12 05:16:38;;;;;;;;;;;4.20;99.90;;;;;;5155462;27;19934;-39
2022/11/12 05:19:04;;;;;;;;;;;4.20;99.90;;;;;;5156158;27;19908;-40
2022/11/12 05:24:13;;;;;;;;;;;4.30;99.90;;;;;;5155104;27;19922;-39
2022/11/12 05:26:39;;;;;;;;;;;4.30;99.90;;;;;;5156115;27;19907;-39
2022/11/12 05:29:04;;;;;;;;;;;4.30;99.90;;;;;;5155649;27;19907;-39
2022/11/12 05:31:30;;;;;;;;;;;4.30;99.90;;;;;;5155013;27;19915;-39
2022/11/12 05:33:55;;;;;;;;;;;4.30;99.90;;;;;;5155717;27;19997;-42
2022/11/12 05:36:21;;;;;;;;;;;4.30;99.90;;;;;;5154832;27;20246;-40
2022/11/12 05:38:47;;;;;;;;;;;4.30;99.90;;;;;;5155547;27;20327;-39
2022/11/12 05:41:12;;;;;;;;;;;4.20;99.90;;;;;;5154768;27;19919;-40
2022/11/12 05:43:38;;;;;;;;;;;4.20;99.90;;;;;;5154707;27;20348;-40
2022/11/12 05:46:03;;;;;;;;;;;4.20;99.90;;;;;;5155515;27;19911;-39
2022/11/12 05:48:29;;;;;;;;;;;4.20;99.90;;;;;;5155663;27;19963;-44
2022/11/12 05:50:54;;;;;;;;;;;4.30;99.90;;;;;;5154320;27;19911;-39
2022/11/12 05:53:20;;;;;;;;;;;4.30;99.90;;;;;;5154728;27;19911;-39
2022/11/12 05:55:45;;;;;;;;;;;4.20;99.90;;;;;;5155182;27;19918;-41
2022/11/12 05:58:10;;;;;;;;;;;4.30;99.90;;;;;;5154351;27;19911;-38
2022/11/12 06:00:39;;;;;;;;;;;4.30;99.90;;;;;;5155019;27;20006;-39
2022/11/12 06:03:05;;;;;;;;;;;4.30;99.90;;;;;;5154956;27;19918;-39
2022/11/12 06:05:34;;;;;;;;;;;4.30;99.90;;;;;;5154521;27;19915;-40
2022/11/12 06:08:00;;;;;;;;;;;4.30;99.90;;;;;;5155259;27;19936;-39
2022/11/12 06:10:25;;;;;;;;;;;4.30;99.90;;;;;;5154917;27;19915;-39
2022/11/12 06:12:51;;;;;;;;;;;4.30;99.90;;;;;;5153859;27;19915;-45
2022/11/12 06:15:17;;;;;;;;;;;4.30;99.90;;;;;;5154813;27;20327;-39
2022/11/12 06:17:42;;;;;;;;;;;4.30;99.90;;;;;;5154800;27;19911;-39
2022/11/12 06:20:08;;;;;;;;;;;4.30;99.90;;;;;;5154051;27;19962;-39
2022/11/12 06:22:34;;;;;;;;;;;4.30;99.90;;;;;;5154686;27;19911;-39
2022/11/12 06:24:59;;;;;;;;;;;4.20;99.90;;;;;;5154131;27;19918;-41
2022/11/12 06:27:24;;;;;;;;;;;4.20;99.90;;;;;;5154139;27;19960;-39
2022/11/12 06:29:50;;;;;;;;;;;4.20;99.90;;;;;;5154449;27;20037;-39
2022/11/12 06:32:16;;;;;;;;;;;4.20;99.90;;;;;;5154487;27;19919;-39
2022/11/12 06:34:41;;;;;;;;;;;4.10;99.90;;;;;;5153800;27;19955;-38
2022/11/12 06:37:07;;;;;;;;;;;4.20;99.90;;;;;;5154821;27;19911;-39
2022/11/12 06:39:32;;;;;;;;;;;4.20;99.90;;;;;;5153773;27;20119;-47
2022/11/12 06:41:58;;;;;;;;;;;4.20;99.90;;;;;;5153486;27;19918;-39
2022/11/12 06:44:23;;;;;;;;;;;4.20;99.90;;;;;;5153882;27;19919;-39
2022/11/12 06:46:48;;;;;;;;;;;4.20;99.90;;;;;;5152209;27;19915;-39
2022/11/12 06:49:14;;;;;;;;;;;4.10;99.90;;;;;;5152945;27;19907;-41
2022/11/12 06:51:40;;;;;;;;;;;4.00;99.90;;;;;;5154100;27;19925;-41
2022/11/12 06:54:05;;;;;;;;;;;3.90;99.90;;;;;;5153543;27;19907;-40
2022/11/12 06:56:31;;;;;;;;;;;3.90;99.90;;;;;;5153372;27;20323;-41
2022/11/12 06:58:56;;;;;;;;;;;3.90;99.90;;;;;;5154175;27;19933;-44
2022/11/12 07:01:25;;;;;;;;;;;3.80;99.90;;;;;;5153170;27;19974;-39
2022/11/12 07:03:51;;;;;;;;;;;3.80;99.90;;;;;;5154031;27;20017;-39
2022/11/12 07:06:19;;;;;;;;;;;3.80;99.90;;;;;;5153723;27;19908;-42
2022/11/12 07:08:45;;;;;;;;;;;3.80;99.90;;;;;;5153486;27;19912;-40
2022/11/12 07:11:10;;;;;;;;;;;3.80;99.90;;;;;;5154414;27;20306;-39
2022/11/12 07:13:36;;;;;;;;;;;3.70;99.90;;;;;;5154325;27;19907;-39
2022/11/12 07:16:02;;;;;;;;;;;3.70;99.90;;;;;;5153546;27;19908;-39
2022/11/12 07:18:27;;;;;;;;;;;3.80;99.90;;;;;;5154385;27;19943;-40
2022/11/12 07:21:00;;;;;;;;;;;3.80;99.90;;;;;;5153877;27;20408;-39
2022/11/12 07:23:26;;;;;;;;;;;3.80;99.90;;;;;;5153441;27;19963;-40
2022/11/12 07:25:59;;;;;;;;;;;3.80;99.90;;;;;;5154056;27;20424;-39
2022/11/12 07:28:24;;;;;;;;;;;3.80;99.90;;;;;;5154200;27;19907;-40
2022/11/12 07:30:53;;;;;;;;;;;3.90;99.90;;;;;;5153323;27;19919;-40
2022/11/12 07:33:19;;;;;;;;;;;3.90;99.90;;;;;;5154049;27;20005;-39
2022/11/12 07:35:44;;;;;;;;;;;3.90;99.90;;;;;;5154137;27;20348;-39
2022/11/12 07:38:10;;;;;;;;;;;3.90;99.90;;;;;;5153293;27;19907;-39
2022/11/12 07:40:35;;;;;;;;;;;3.90;99.90;;;;;;5153962;27;19915;-39
2022/11/12 07:43:01;;;;;;;;;;;4.00;99.90;;;;;;5153306;27;19915;-42
2022/11/12 07:45:26;;;;;;;;;;;4.00;99.90;;;;;;5153863;27;19919;-40
2022/11/12 07:47:52;;;;;;;;;;;4.00;99.90;;;;;;5153940;27;20377;-41
2022/11/12 07:50:17;;;;;;;;;;;4.00;99.90;;;;;;5153128;27;19918;-38
2022/11/12 07:52:42;;;;;;;;;;;4.00;99.90;;;;;;5153932;27;20365;-44
2022/11/12 07:55:08;;;;;;;;;;;4.10;99.90;;;;;;5153751;27;19955;-39
2022/11/12 07:57:33;;;;;;;;;;;4.10;99.90;;;;;;5153242;27;19907;-41
2022/11/12 07:59:59;;;;;;;;;;;4.10;99.90;;;;;;5153713;27;19919;-40
2022/11/12 08:02:24;;;;;;;;;;;4.10;99.90;;;;;;5153697;27;19907;-39
2022/11/12 08:04:50;;;;;;;;;;;4.20;99.90;;;;;;5152894;27;19911;-39
2022/11/12 08:07:15;;;;;;;;;;;4.20;99.90;;;;;;5153806;27;19993;-41
2022/11/12 08:09:41;;;;;;;;;;;4.20;99.90;;;;;;5153665;27;19908;-39
2022/11/12 08:12:06;;;;;;;;;;;4.30;99.90;;;;;;5152938;27;19997;-39
2022/11/12 08:14:32;;;;;;;;;;;4.30;99.90;;;;;;5153740;27;19908;-38
2022/11/12 08:16:57;;;;;;;;;;;4.40;99.90;;;;;;5155434;27;20429;-39
2022/11/12 08:19:22;;;;;;;;;;;4.40;99.90;;;;;;5156641;27;20242;-39
2022/11/12 08:21:48;;;;;;;;;;;4.50;99.90;;;;;;5157527;27;20056;-39
2022/11/12 08:24:13;;;;;;;;;;;4.50;99.90;;;;;;5157461;27;20282;-40
2022/11/12 08:26:39;;;;;;;;;;;4.60;99.90;;;;;;5156554;27;19918;-42
2022/11/12 08:29:04;;;;;;;;;;;4.60;99.90;;;;;;5149551;27;20005;-39
2022/11/12 08:31:30;;;;;;;;;;;4.70;99.90;;;;;;5157257;27;19907;-40
2022/11/12 08:33:55;;;;;;;;;;;4.80;99.90;;;;;;5156226;27;19994;-39
2022/11/12 08:36:21;;;;;;;;;;;4.90;99.90;;;;;;5157172;27;20369;-42
2022/11/12 08:38:46;;;;;;;;;;;4.90;99.90;;;;;;5157003;27;19915;-39
2022/11/12 08:41:13;;;;;;;;;;;5.00;99.90;;;;;;5156001;27;20445;-39
2022/11/12 08:43:39;;;;;;;;;;;5.10;99.90;;;;;;5156620;27;19930;-39
2022/11/12 08:46:05;;;;;;;;;;;5.20;99.90;;;;;;5156937;27;19911;-39
2022/11/12 08:48:31;;;;;;;;;;;5.30;99.90;;;;;;5156019;27;19960;-39
2022/11/12 08:50:57;;;;;;;;;;;5.30;99.90;;;;;;5156678;27;19921;-42
2022/11/12 08:53:23;;;;;;;;;;;5.40;99.90;;;;;;5155842;27;19907;-39
2022/11/12 08:55:53;;;;;;;;;;;5.40;99.90;;;;;;5156599;27;19925;-44
2022/11/12 08:58:18;;;;;;;;;;;5.50;99.90;;;;;;5156762;27;19942;-40
2022/11/12 09:00:45;;;;;;;;;;;5.50;99.90;;;;;;5155721;27;19961;-40
2022/11/12 09:03:14;;;;;;;;;;;5.70;99.90;;;;;;5156672;27;20040;-39
2022/11/12 09:05:39;;;;;;;;;;;5.70;99.90;;;;;;5156361;27;19922;-41
2022/11/12 09:08:10;;;;;;;;;;;5.80;99.90;;;;;;5155757;27;19911;-40
2022/11/12 09:10:36;;;;;;;;;;;5.90;99.90;;;;;;5156380;27;19907;-39
2022/11/12 09:13:02;;;;;;;;;;;6.00;99.90;;;;;;5156305;27;20350;-40
2022/11/12 09:15:28;;;;;;;;;;;6.10;99.90;;;;;;5155547;27;19914;-40
2022/11/12 09:17:55;;;;;;;;;;;6.20;99.90;;;;;;5156068;27;20006;-41
2022/11/12 09:20:20;;;;;;;;;;;6.30;99.90;;;;;;5156071;27;19915;-40
2022/11/12 09:22:46;;;;;;;;;;;6.40;99.90;;;;;;5137254;27;19964;-39
2022/11/12 09:25:11;;;;;;;;;;;6.50;99.90;;;;;;5156767;27;19915;-42
2022/11/12 09:27:36;;;;;;;;;;;6.60;99.90;;;;;;5156626;27;20297;-39
2022/11/12 09:30:03;;;;;;;;;;;6.70;99.90;;;;;;5155812;27;19914;-41
2022/11/12 09:32:29;;;;;;;;;;;6.80;99.90;;;;;;5156867;27;19907;-40
2022/11/12 09:34:54;;;;;;;;;;;7.00;99.90;;;;;;5155686;27;19914;-39
2022/11/12 09:37:20;;;;;;;;;;;7.00;99.90;;;;;;5155205;27;20365;-39
2022/11/12 09:39:45;;;;;;;;;;;7.20;99.90;;;;;;5155776;27;19930;-39
2022/11/12 09:42:13;;;;;;;;;;;7.30;99.90;;;;;;5155777;27;20005;-39
2022/11/12 09:44:39;;;;;;;;;;;7.50;99.90;;;;;;5154903;27;19923;-39
2022/11/12 09:47:14;;;;;;;;;;;7.60;99.90;;;;;;5155808;27;20364;-39
2022/11/12 09:49:42;;;;;;;;;;;7.80;99.90;;;;;;5154868;27;19921;-42
2022/11/12 09:52:15;;;;;;;;;;;8.00;99.90;;;;;;5155489;27;19907;-44
2022/11/12 09:54:41;;;;;;;;;;;8.10;99.90;;;;;;5134986;27;19914;-39
2022/11/12 09:57:11;;;;;;;;;;;8.30;99.90;;;;;;5133452;27;20283;-40
2022/11/12 09:59:38;;;;;;;;;;;8.40;99.90;;;;;;5134784;27;20362;-39
2022/11/12 10:02:04;;;;;;;;;;;8.50;99.90;;;;;;5134670;27;19911;-39
2022/11/12 10:04:38;;;;;;;;;;;8.70;99.90;;;;;;5134050;27;19907;-39
2022/11/12 10:07:18;;;;;;;;;;;8.80;99.90;;;;;;5134635;27;19957;-40
2022/11/12 10:09:44;;;;;;;;;;;8.90;99.90;;;;;;5134708;27;19908;-39
2022/11/12 10:12:30;;;;;;;;;;;9.00;99.90;;;;;;5134049;27;19908;-39
2022/11/12 10:16:41;;;;;;;;;;;9.10;99.90;;;;;;5134479;27;20403;-40
2022/11/12 10:17:50;;;;;;;;;;;9.30;99.90;;;;;;5133606;27;19973;-40
2022/11/12 10:20:26;;;;;;;;;;;9.40;99.90;;;;;;5134489;27;19917;-39
2022/11/12 10:22:54;;;;;;;;;;;9.50;99.90;;;;;;5140359;27;19925;-42
2022/11/12 10:25:20;;;;;;;;;;;9.70;99.90;;;;;;5154272;27;20352;-39
2022/11/12 10:27:47;;;;;;;;;;;9.80;99.90;;;;;;5154985;27;19958;-41
2022/11/12 10:30:25;;;;;;;;;;;9.90;99.90;;;;;;5155016;27;19914;-39
2022/11/12 10:32:51;;;;;;;;;;;10.00;99.90;;;;;;5153817;27;19915;-40
2022/11/12 10:35:18;;;;;;;;;;;10.10;99.90;;;;;;5154841;27;19914;-41
2022/11/12 10:37:44;;;;;;;;;;;10.20;99.90;;;;;;5154766;27;19907;-40
2022/11/12 10:40:24;;;;;;;;;;;10.30;99.90;;;;;;5152999;27;19915;-40
2022/11/12 10:43:00;;;;;;;;;;;10.40;99.90;;;;;;5154758;27;19922;-40
2022/11/12 10:45:26;;;;;;;;;;;10.40;99.90;;;;;;5154483;27;19919;-42
2022/11/12 10:47:51;;;;;;;;;;;10.40;99.90;;;;;;5153682;27;19911;-39
2022/11/12 10:50:19;;;;;;;;;;;10.40;99.90;;;;;;5154591;27;19907;-39
2022/11/12 10:52:54;;;;;;;;;;;10.40;99.90;;;;;;5154199;27;19959;-45
2022/11/12 10:55:22;;;;;;;;;;;10.40;99.90;;;;;;5154812;27;20374;-39
2022/11/12 10:58:06;;;;;;;;;;;10.40;99.90;;;;;;5154499;27;19907;-39
2022/11/12 11:00:31;;;;;;;;;;;10.30;99.90;;;;;;5153379;27;20330;-41
2022/11/12 11:02:58;;;;;;;;;;;10.20;99.90;;;;;;5154984;27;20346;-41
2022/11/12 11:05:26;;;;;;;;;;;10.20;99.90;;;;;;5155188;27;20409;-43
2022/11/12 11:07:51;;;;;;;;;;;10.20;99.90;;;;;;5154372;27;19921;-39
2022/11/12 11:10:22;;;;;;;;;;;10.20;99.90;;;;;;5154302;27;19989;-41
2022/11/12 11:12:47;;;;;;;;;;;10.30;99.90;;;;;;5154199;27;20005;-43
2022/11/12 11:15:20;;;;;;;;;;;10.40;99.90;;;;;;5153272;27;20130;-41
2022/11/12 11:17:46;;;;;;;;;;;10.60;99.90;;;;;;5154432;27;19916;-39
2022/11/12 11:20:31;;;;;;;;;;;10.80;99.90;;;;;;5153988;27;19911;-44
2022/11/12 11:23:17;;;;;;;;;;;11.10;99.90;;;;;;5152310;27;19915;-41
2022/11/12 11:25:43;;;;;;;;;;;11.20;99.90;;;;;;5135854;27;19926;-41
2022/11/12 11:28:15;;;;;;;;;;;11.40;99.90;;;;;;5154449;27;19914;-39
2022/11/12 11:30:48;;;;;;;;;;;11.50;99.90;;;;;;5154617;27;19907;-41
2022/11/12 11:33:23;;;;;;;;;;;11.50;99.90;;;;;;5154361;27;19915;-41
2022/11/12 11:35:54;;;;;;;;;;;11.60;99.90;;;;;;5133252;28;19908;-42
2022/11/12 11:38:22;;;;;;;;;;;11.70;99.90;;;;;;5141446;27;19918;-39
2022/11/12 11:40:48;;;;;;;;;;;11.70;99.90;;;;;;5154186;27;19922;-40
2022/11/12 11:43:14;;;;;;;;;;;11.70;99.90;;;;;;5154211;27;19911;-40
2022/11/12 11:45:51;;;;;;;;;;;11.80;99.90;;;;;;5154265;27;20372;-44
2022/11/12 11:48:19;;;;;;;;;;;11.90;99.90;;;;;;5154584;27;20006;-41
2022/11/12 11:50:52;;;;;;;;;;;12.00;99.90;;;;;;5153905;27;20361;-40
2022/11/12 11:53:23;;;;;;;;;;;12.10;99.90;;;;;;5158884;27;19952;-40
2022/11/12 11:55:59;;;;;;;;;;;12.30;99.90;;;;;;5158544;27;20429;-42
2022/11/12 11:58:43;;;;;;;;;;;12.50;99.90;;;;;;5158049;27;20342;-43
2022/11/12 12:01:19;;;;;;;;;;;12.70;99.90;;;;;;5158498;27;19915;-40
2022/11/12 12:04:00;;;;;;;;;;;12.80;99.90;;;;;;5157446;27;19960;-40
2022/11/12 12:06:27;;;;;;;;;;;12.80;99.90;;;;;;5158557;27;20014;-41
2022/11/12 12:09:02;;;;;;;;;;;12.90;99.90;;;;;;5158266;27;19907;-40
2022/11/12 12:11:46;;;;;;;;;;;13.00;99.90;;;;;;5157554;27;20396;-40
2022/11/12 12:14:30;;;;;;;;;;;13.00;99.90;;;;;;5158447;27;19907;-41
2022/11/12 12:17:02;;;;;;;;;;;13.10;99.90;;;;;;5157792;27;20085;-40
2022/11/12 12:19:39;;;;;;;;;;;13.20;99.90;;;;;;5157474;27;20388;-41
2022/11/12 12:22:08;;;;;;;;;;;13.20;99.90;;;;;;5158280;27;19915;-40
2022/11/12 12:24:48;;;;;;;;;;;13.30;99.90;;;;;;5157461;27;20301;-40
2022/11/12 12:27:19;;;;;;;;;;;13.30;99.90;;;;;;5158127;27;19918;-40
2022/11/12 12:29:48;;;;;;;;;;;13.30;99.90;;;;;;5157932;27;19964;-41
2022/11/12 12:32:34;;;;;;;;;;;13.40;99.90;;;;;;5157480;27;19911;-42
2022/11/12 12:35:06;;;;;;;;;;;13.50;99.90;;;;;;5157426;27;19911;-40
2022/11/12 12:37:38;;;;;;;;;;;13.60;99.90;;;;;;5157195;27;19907;-42
2022/11/12 12:40:12;;;;;;;;;;;13.60;99.90;;;;;;5156505;27;19915;-40
2022/11/12 12:42:51;;;;;;;;;;;13.60;99.90;;;;;;5157562;27;19915;-40
2022/11/12 12:45:22;;;;;;;;;;;13.70;99.90;;;;;;5157011;27;19962;-47
2022/11/12 12:47:49;;;;;;;;;;;13.80;99.90;;;;;;5157207;27;19914;-43
2022/11/12 12:50:16;;;;;;;;;;;13.90;99.90;;;;;;5157579;27;19975;-39
2022/11/12 12:53:00;;;;;;;;;;;14.00;99.90;;;;;;5156926;27;19918;-41
2022/11/12 12:55:33;;;;;;;;;;;14.10;99.90;;;;;;5157514;27;20029;-41
2022/11/12 12:57:58;;;;;;;;;;;14.10;99.90;;;;;;5157013;27;20424;-41
2022/11/12 13:00:25;;;;;;;;;;;14.10;99.90;;;;;;5156853;27;19998;-41
2022/11/12 13:02:51;;;;;;;;;;;14.10;99.90;;;;;;5156343;27;19918;-39
2022/11/12 13:05:28;;;;;;;;;;;14.20;99.90;;;;;;5157059;27;19907;-44
2022/11/12 13:07:56;;;;;;;;;;;14.30;99.90;;;;;;5156688;27;20381;-41
2022/11/12 13:10:42;;;;;;;;;;;14.40;99.90;;;;;;5157294;27;19907;-40
2022/11/12 13:13:16;;;;;;;;;;;14.50;99.90;;;;;;5139004;27;19993;-41
2022/11/12 13:15:43;;;;;;;;;;;14.60;99.90;;;;;;5156617;27;19919;-40
2022/11/12 13:18:09;;;;;;;;;;;14.80;99.90;;;;;;5157199;27;19907;-40
2022/11/12 13:20:39;;;;;;;;;;;15.20;99.90;;;;;;5156364;27;20006;-39
2022/11/12 13:23:08;;;;;;;;;;;15.60;99.90;;;;;;5156469;27;19933;-44
2022/11/12 13:25:33;;;;;;;;;;;15.90;99.90;;;;;;5156614;27;19913;-40
2022/11/12 13:27:59;;;;;;;;;;;16.10;99.90;;;;;;5155417;27;20331;-46
2022/11/12 13:30:24;;;;;;;;;;;16.30;99.90;;;;;;5155835;27;19914;-42
2022/11/12 13:32:49;;;;;;;;;;;16.40;99.90;;;;;;5155799;27;19911;-42
2022/11/12 13:35:21;;;;;;;;;;;16.40;99.90;;;;;;5155237;27;19976;-42
2022/11/12 13:38:00;;;;;;;;;;;16.30;99.90;;;;;;5155703;27;19914;-43
2022/11/12 13:40:29;;;;;;;;;;;16.50;99.90;;;;;;5154907;27;19968;-43
2022/11/12 13:42:55;;;;;;;;;;;16.70;99.90;;;;;;5154011;27;20315;-42
2022/11/12 13:45:22;;;;;;;;;;;17.00;99.90;;;;;;5155114;27;20373;-42
2022/11/12 13:47:48;;;;;;;;;;;17.20;99.90;;;;;;5155421;27;20401;-43
2022/11/12 13:50:15;;;;;;;;;;;17.40;99.90;;;;;;5154746;27;19922;-43
2022/11/12 13:52:41;;;;;;;;;;;17.70;99.90;;;;;;5155454;27;20357;-41
2022/11/12 13:55:12;;;;;;;;;;;17.90;99.90;;;;;;5155560;27;19961;-40
2022/11/12 13:57:37;;;;;;;;;;;18.10;99.90;;;;;;5154720;27;20038;-42
2022/11/12 14:00:29;;;;;;;;;;;18.20;99.90;;;;;;5155491;27;20377;-42
2022/11/12 14:02:59;;;;;;;;;;;18.30;99.90;;;;;;5129592;27;20010;-42
2022/11/12 14:05:26;;;;;;;;;;;18.40;99.90;;;;;;5134686;27;20362;-41
2022/11/12 14:07:58;;;;;;;;;;;18.40;99.90;;;;;;5134487;27;19918;-43
2022/11/12 14:10:38;;;;;;;;;;;18.50;99.90;;;;;;5133750;27;19907;-42
2022/11/12 14:13:12;;;;;;;;;;;18.50;99.90;;;;;;5134515;27;19915;-42
2022/11/12 14:15:56;;;;;;;;;;;18.30;99.90;;;;;;5134876;27;19907;-41
2022/11/12 14:18:21;;;;;;;;;;;18.30;99.90;;;;;;5153789;27;20025;-41
2022/11/12 14:20:47;;;;;;;;;;;18.40;99.90;;;;;;5154997;27;20391;-42
2022/11/12 14:23:14;;;;;;;;;;;18.40;99.90;;;;;;5154975;27;20289;-41
2022/11/12 14:25:47;;;;;;;;;;;18.60;99.90;;;;;;5154082;27;20377;-41
2022/11/12 14:28:29;;;;;;;;;;;18.70;99.90;;;;;;5154992;27;19952;-43
2022/11/12 14:30:55;;;;;;;;;;;18.80;99.90;;;;;;5153972;27;20005;-41
2022/11/12 14:33:22;;;;;;;;;;;18.90;99.90;;;;;;5154786;27;20281;-40
2022/11/12 14:35:48;;;;;;;;;;;19.00;99.90;;;;;;5154672;27;19907;-40
2022/11/12 14:38:13;;;;;;;;;;;19.00;99.90;;;;;;5154023;27;20048;-41
2022/11/12 14:40:44;;;;;;;;;;;19.00;99.90;;;;;;5153762;27;20009;-41
2022/11/12 14:43:36;;;;;;;;;;;19.00;99.90;;;;;;5154335;27;19911;-42
2022/11/12 14:46:02;;;;;;;;;;;19.00;99.90;;;;;;5148743;27;20009;-42
2022/11/12 14:48:29;;;;;;;;;;;19.00;99.90;;;;;;5154171;27;19907;-42
2022/11/12 14:50:57;;;;;;;;;;;18.90;99.90;;;;;;5154540;27;19910;-41